Snow/Ice From: 17-12-2018 09:00 Until: 17:00 warning for: Snow/Ice Level: Yellow info button
suomi:
Liikennesää: Ajokeli muuttuu huonoksi päivällä lumisateen vuoksi.

svenska:
Trafikvädret: Väglaget blir dåligt på dagen p.g.a. snöfall.

english:
Traffic weather warning: Bad road conditions are expected at noon and in the afternoon because of snow. 


Thunder radar more information blitzortung!


Löydät sääaseman tiedot myös:

European Weather Network

Finland Weather Exchange

Weather Underground

AWEKAS



Weather Underground säähistoriasivu

Päivittäin yhteenveto Tou 11, 2017 Yksiköt:  Metriset    Englantilaiset   Molemmat
« Edellinen Päivä
Seuraava Päivä »
Päivittäin Viikoittain Kuukausittain Vuosittain Mukautettu
  Korkea: Matala: Keskiarvo:
Lämpötila: -17.8 °C -20.1 °C -17.2 °C
Kastepiste: -17.8 °C -22.1 °C -20.2 °C
Kosteus: Humidity % 40 % 70 %
Tuulen nopeus: 0 km/h 0 km/h 3.1 km/h
Tuulenpuuska: 0 km/h - -
Tuuli:- - West
Ilmanpaine: 0 hPa 34120.7 hPa -
Sade: 25.4 mm    
Historical Graphs
 
 
Taulukkotiedot Tou 11, 2017
Aika Lämpötila Kastepiste Ilmanpaine Tuuli Tuulen nopeus Tuulenpuuska Kosteus Sademäärä (tunneittain)
-17.8 °C -17.8 °C 0 hPa Calm     Humidity % 0 mm
00:00 -18.6 °C -19.5 °C 34120.7 hPa Calm     89 % 0 mm
00:15 -18.7 °C -19.5 °C 34120.7 hPa Calm     90 % 0 mm
00:30 -18.8 °C -19.7 °C 34120.7 hPa Calm     90 % 0 mm
00:45 -19 °C -19.7 °C 34130.9 hPa Calm     91 % 0 mm
01:00 -19.1 °C -19.8 °C 34130.9 hPa Calm     91 % 0 mm
01:15 -19.2 °C -19.9 °C 34130.9 hPa Calm     91 % 0 mm
01:30 -19.3 °C -20 °C 34120.7 hPa Calm     91 % 0 mm
01:45 -19.3 °C -20 °C 34120.7 hPa Calm     91 % 0 mm
02:00 -19.3 °C -20.1 °C 34120.7 hPa Calm     91 % 0 mm
02:15 -19.4 °C -20.1 °C 34130.9 hPa Calm     91 % 0 mm
02:30 -19.6 °C -20.2 °C 34130.9 hPa Calm     91 % 0 mm
02:45 -19.7 °C -20.3 °C 34130.9 hPa Calm     92 % 0 mm
03:00 -19.8 °C -20.4 °C 34130.9 hPa Calm     92 % 0 mm
03:15 -19.8 °C -20.4 °C 34130.9 hPa Calm     92 % 0 mm
03:30 -19.9 °C -20.5 °C 34130.9 hPa Calm   5.1 km/h 92 % 0 mm
03:45 -19.9 °C -20.5 °C 34130.9 hPa Calm     92 % 0 mm
04:00 -20 °C -20.6 °C 34130.9 hPa Calm     92 % 0 mm
04:15 -20.1 °C -20.6 °C 34130.9 hPa Calm     93 % 0 mm
04:30 -20.1 °C -20.6 °C 34130.9 hPa Calm     93 % 0 mm
04:45 -20.1 °C -20.6 °C 34130.9 hPa Calm     93 % 0 mm
05:00 -20.1 °C -20.6 °C 34130.9 hPa Calm     93 % 0 mm
05:15 -19.9 °C -20.5 °C 34130.9 hPa Calm     93 % 0 mm
05:45 -19.9 °C -20.4 °C 34130.9 hPa Calm     93 % 0 mm
06:00 -19.9 °C -20.3 °C 34120.7 hPa Calm     94 % 0 mm
06:15 -19.8 °C -20.3 °C 34130.9 hPa Calm     94 % 0 mm
06:30 -19.7 °C -20.2 °C 34120.7 hPa Calm     94 % 0 mm
06:45 -19.6 °C -20.1 °C 34120.7 hPa Calm     94 % 0 mm
07:00 -19.3 °C -19.7 °C 34120.7 hPa Calm     95 % 0 mm
07:15 -19 °C -19.4 °C 34130.9 hPa Calm     95 % 0 mm
07:30 -18.6 °C -19 °C 34130.9 hPa Calm   7.7 km/h 95 % 0 mm
07:45 -18.3 °C -18.8 °C 34130.9 hPa Calm   5.1 km/h 93 % 0 mm
08:00 -17.9 °C -18.6 °C 34130.9 hPa NNW 2.6 km/h 10.3 km/h 91 % 0 mm
08:15 -17.8 °C -18.6 °C 34130.9 hPa Calm     90 % 0 mm
08:30 -17.6 °C -18.4 °C 34130.9 hPa Calm   2.6 km/h 90 % 0 mm
08:45 -16.9 °C -18 °C 34130.9 hPa North 2.6 km/h 12.9 km/h 87 % 0 mm
09:00 -16.5 °C -18.2 °C 34144.4 hPa North 2.6 km/h 7.7 km/h 80 % 7.62 mm
09:15 -16.3 °C -18.5 °C 34144.4 hPa North 2.6 km/h 10.3 km/h 75 % 12.7 mm
09:30 -16.1 °C -18.6 °C 34144.4 hPa Calm   10.3 km/h 72 % 12.7 mm
09:45 -16 °C -18.4 °C 34144.4 hPa NE 2.6 km/h 12.9 km/h 73 % 12.7 mm
10:00 -15.9 °C -18.9 °C 34144.4 hPa North 2.6 km/h 20.8 km/h 68 % 12.7 mm
10:15 -16.1 °C -19.1 °C 34144.4 hPa NNE 2.6 km/h 10.3 km/h 67 % 7.62 mm
10:30 -16.1 °C -18.8 °C 34144.4 hPa North 2.6 km/h 10.3 km/h 70 % 7.62 mm
10:45 -16.1 °C -18.8 °C 34144.4 hPa NNE 2.6 km/h 7.7 km/h 70 % 7.62 mm
11:00 -15.8 °C -19.1 °C 34144.4 hPa East 2.6 km/h 10.3 km/h 65 % 7.62 mm
11:15 -16 °C -19.3 °C 34144.4 hPa WNW 5.1 km/h 20.8 km/h 65 % 7.62 mm
11:30 -16.3 °C -19.4 °C 34144.4 hPa NNW 5.1 km/h 12.9 km/h 67 % 0 mm
11:45 -16.1 °C -18.9 °C 34144.4 hPa NNW 2.6 km/h 10.3 km/h 69 % 7.62 mm
12:00 -15.4 °C -18.1 °C 34154.6 hPa NE 2.6 km/h 7.7 km/h 71 % 7.62 mm
12:15 -15.7 °C -19.4 °C 34154.6 hPa WNW 2.6 km/h 18.2 km/h 61 % 7.62 mm
12:30 -16.2 °C -18.9 °C 34154.6 hPa NNW 2.6 km/h 15.6 km/h 71 % 7.62 mm
12:45 -15.9 °C -19 °C 34154.6 hPa NW 5.1 km/h 18.2 km/h 67 % 0 mm
13:00 -15.4 °C -18.4 °C 34154.6 hPa Calm   10.3 km/h 68 % 0 mm
13:15 -15.5 °C -17.9 °C 34154.6 hPa Calm   10.3 km/h 73 % 0 mm
13:30 -15.8 °C -18.3 °C 34164.7 hPa North 2.6 km/h 12.9 km/h 72 % 0 mm
13:45 -15.8 °C -18.7 °C 34154.6 hPa NNW 5.1 km/h 10.3 km/h 69 % 0 mm
14:00 -15.2 °C -18.6 °C 34154.6 hPa NE 2.6 km/h 10.3 km/h 65 % 0 mm
14:15 -15.3 °C -19.8 °C 34154.6 hPa NW 2.6 km/h 28.5 km/h 56 % 0 mm
14:30 -15.2 °C -20.6 °C 34154.6 hPa NW 7.7 km/h 23.3 km/h 50 % 0 mm
14:45 -15.1 °C -20.6 °C 34154.6 hPa NNE 7.7 km/h 20.8 km/h 49 % 0 mm
15:00 -15.2 °C -21 °C 34154.6 hPa NW 7.7 km/h 23.3 km/h 47 % 0 mm
15:15 -14.9 °C -21 °C 34154.6 hPa NNW 7.7 km/h 18.2 km/h 45 % 0 mm
15:30 -14.9 °C -20.6 °C 34154.6 hPa NW 10.3 km/h 33.6 km/h 48 % 0 mm
15:45 -15.1 °C -20.7 °C 34164.7 hPa NW 10.3 km/h 31.1 km/h 48 % 0 mm
16:00 -14.8 °C -20.8 °C 34154.6 hPa North 10.3 km/h 20.8 km/h 46 % 0 mm
16:15 -15.1 °C -21.1 °C 34164.7 hPa NNW 5.1 km/h 18.2 km/h 46 % 0 mm
16:30 -15.2 °C -21.1 °C 34164.7 hPa NW 7.7 km/h 36.2 km/h 46 % 0 mm
16:45 -15.1 °C -21 °C 34164.7 hPa NNW 10.3 km/h 44.1 km/h 46 % 0 mm
17:00 -15.2 °C -21.3 °C 34164.7 hPa NW 10.3 km/h 33.6 km/h 45 % 0 mm
17:15 -15.4 °C -21.6 °C 34164.7 hPa NNW 7.7 km/h 25.9 km/h 44 % 0 mm
17:30 -15.3 °C -21.6 °C 34164.7 hPa NW 12.9 km/h 25.9 km/h 44 % 0 mm
17:45 -15.3 °C -21.6 °C 34178.3 hPa NW 7.7 km/h 20.8 km/h 44 % 0 mm
18:00 -15.1 °C -21.6 °C 34178.3 hPa NNW 7.7 km/h 28.5 km/h 43 % 0 mm
18:15 -15.1 °C -22.1 °C 34178.3 hPa NNW 12.9 km/h 20.8 km/h 40 % 0 mm
18:30 -15.1 °C -21.5 °C 34178.3 hPa NW 12.9 km/h 23.3 km/h 43 % 0 mm
18:45 -15.2 °C -21.7 °C 34178.3 hPa NW 12.9 km/h 25.9 km/h 43 % 0 mm
19:00 -15.2 °C -21.8 °C 34188.4 hPa NNW 7.7 km/h 18.2 km/h 42 % 0 mm
19:15 -15.2 °C -21.7 °C 34188.4 hPa NNW 5.1 km/h 20.8 km/h 43 % 0 mm
19:30 -15.4 °C -21.8 °C 34188.4 hPa NNW 7.7 km/h 20.8 km/h 43 % 0 mm
19:45 -15.6 °C -21.3 °C 34188.4 hPa NW 5.1 km/h 23.3 km/h 47 % 0 mm
20:00 -15.7 °C -21.6 °C 34188.4 hPa NW 10.3 km/h 20.8 km/h 46 % 0 mm
20:15 -16 °C -22 °C 34188.4 hPa NNW 5.1 km/h 18.2 km/h 45 % 0 mm
20:30 -16.1 °C -21.9 °C 34198.6 hPa NNW 5.1 km/h 12.9 km/h 46 % 0 mm
20:45 -16.3 °C -21.7 °C 34198.6 hPa NNW 5.1 km/h 12.9 km/h 49 % 0 mm
21:00 -16.6 °C -21.3 °C 34212.1 hPa Calm   7.7 km/h 53 % 0 mm
21:15 -16.7 °C -21.4 °C 34212.1 hPa NNW 2.6 km/h 12.9 km/h 53 % 0 mm
21:30 -16.8 °C -21.2 °C 34222.3 hPa Calm   10.3 km/h 56 % 0 mm
21:45 -17 °C -21.3 °C 34222.3 hPa North 2.6 km/h 7.7 km/h 56 % 0 mm
22:00 -17.2 °C -21.2 °C 34222.3 hPa Calm   7.7 km/h 59 % 0 mm
22:15 -17.4 °C -21 °C 34235.8 hPa Calm   7.7 km/h 62 % 0 mm
22:30 -17.7 °C -20.9 °C 34235.8 hPa Calm   7.7 km/h 65 % 0 mm
22:45 -17.9 °C -20.8 °C 34235.8 hPa Calm     68 % 0 mm
23:00 -18.2 °C -20.8 °C 34246 hPa Calm   2.6 km/h 71 % 0 mm
23:15 -18.3 °C -20.6 °C 34246 hPa Calm   5.1 km/h 74 % 0 mm
23:30 -18.4 °C -20.5 °C 34256.2 hPa Calm   5.1 km/h 75 % 0 mm
23:45 -18.4 °C -20.6 °C 34256.2 hPa Calm   2.6 km/h 75 % 0 mm
Esan sääasema
Terveisin Weather Underground - 2.75 mb

Alkuperäinen skripti  Jim McMurry - jmcmurry@mwt.net Sovitettu myös templatelle  Wim van der Kuil - Leuven-Template.eu

Laitteet joita käytämme:

Sääasema
Davis VP2

Sääasemaohjelma
Cumulus

Sääaseman tietokone
Asus EeePC

Palveluntarjoaja
Suncomet

Davis VP2

Cumulus

Asus EeePC

Suncomet